createdAt,value
2022-12-11T07:07:34.499Z,20.25
2022-12-11T07:10:08.601Z,24.52
2022-12-11T07:12:40.937Z,24.27
2022-12-11T07:15:13.408Z,25.73
2022-12-11T07:17:45.636Z,26.23
2022-12-11T07:20:17.817Z,26.83
2022-12-11T07:22:50.436Z,24.02
2022-12-11T07:25:22.449Z,22.65
2022-12-11T07:27:54.739Z,24.80
2022-12-11T07:30:26.775Z,21.13
2022-12-11T07:32:58.796Z,22.65
2022-12-11T07:35:30.909Z,26.85
2022-12-11T07:38:03.137Z,26.08
2022-12-11T07:40:35.665Z,25.85
2022-12-11T07:43:08.200Z,26.90
2022-12-11T07:45:40.243Z,23.83
2022-12-11T07:48:12.861Z,22.73
2022-12-11T07:50:44.857Z,22.90
2022-12-11T07:53:16.842Z,22.73
2022-12-11T07:55:48.836Z,22.55
2022-12-11T07:58:21.715Z,23.13
2022-12-11T08:00:53.778Z,20.08
2022-12-11T08:03:27.683Z,22.52
2022-12-11T08:05:59.735Z,22.17
2022-12-11T08:08:31.947Z,21.58
2022-12-11T08:11:05.917Z,24.93
2022-12-11T08:16:13.684Z,21.10
2022-12-11T08:18:47.474Z,22.08
2022-12-11T08:21:25.465Z,22.00
2022-12-11T08:23:57.976Z,21.63
2022-12-11T08:26:34.068Z,21.75
2022-12-11T08:29:06.325Z,22.73
2022-12-11T08:31:39.944Z,23.17
2022-12-11T08:34:13.936Z,23.02
2022-12-11T08:36:45.974Z,21.52
2022-12-11T08:39:18.795Z,23.00
2022-12-11T08:41:50.915Z,22.33
2022-12-11T08:44:25.122Z,22.67
2022-12-11T08:46:57.405Z,21.27
2022-12-11T08:49:34.213Z,20.95
2022-12-11T08:52:07.344Z,23.77
2022-12-11T08:54:39.450Z,12.45
2022-12-11T08:57:11.657Z,20.00
2022-12-11T08:59:46.055Z,21.83
2022-12-11T09:02:18.476Z,23.02
2022-12-11T09:04:50.856Z,24.17
2022-12-11T09:07:22.849Z,25.45
2022-12-11T09:09:55.333Z,22.55
2022-12-11T09:12:28.078Z,23.08
2022-12-11T09:15:00.504Z,21.95
2022-12-11T09:17:34.203Z,21.90
2022-12-11T09:20:07.006Z,20.10
2022-12-11T09:22:40.102Z,20.95
2022-12-11T09:25:12.722Z,21.75
2022-12-11T09:27:45.488Z,26.10
2022-12-11T09:30:17.648Z,34.95
2022-12-11T09:32:49.666Z,30.42
2022-12-11T09:35:21.844Z,22.55
2022-12-11T09:37:53.879Z,22.90
2022-12-11T09:40:25.960Z,19.20
2022-12-11T09:43:06.515Z,20.35
2022-12-11T09:45:38.572Z,19.63
2022-12-11T09:48:13.413Z,18.33
2022-12-11T09:50:48.596Z,20.50
2022-12-11T09:53:37.615Z,18.88
2022-12-11T09:56:25.758Z,20.23
2022-12-11T09:59:16.981Z,20.73
2022-12-11T10:01:57.988Z,17.92
2022-12-11T10:05:09.097Z,20.45
2022-12-11T10:07:52.952Z,16.15
2022-12-11T10:10:36.301Z,17.38
2022-12-11T10:13:16.868Z,14.75
2022-12-11T10:15:59.879Z,14.15
2022-12-11T10:18:33.746Z,15.73
2022-12-11T10:21:06.904Z,13.23
2022-12-11T10:23:46.186Z,16.08
2022-12-11T10:26:20.842Z,14.82
2022-12-11T10:28:53.273Z,13.15
2022-12-11T10:31:45.964Z,12.93
2022-12-11T10:34:39.140Z,14.55
2022-12-11T10:37:11.413Z,12.60
2022-12-11T10:39:43.699Z,12.70
2022-12-11T10:42:23.661Z,13.27
2022-12-11T10:45:01.778Z,12.60
2022-12-11T10:47:34.827Z,12.38
2022-12-11T10:50:06.961Z,12.00
2022-12-11T10:52:45.060Z,12.63
2022-12-11T10:55:38.294Z,12.65
2022-12-11T10:58:19.633Z,12.53
2022-12-11T11:01:06.273Z,12.70
2022-12-11T11:03:53.252Z,12.13
2022-12-11T11:06:26.369Z,12.23
2022-12-11T11:09:01.341Z,11.05
2022-12-11T11:11:38.308Z,12.48
2022-12-11T11:14:21.194Z,14.45
2022-12-11T11:16:57.350Z,12.67
2022-12-11T11:19:35.067Z,11.45
2022-12-11T11:22:16.221Z,11.15
2022-12-11T11:24:59.198Z,11.82
2022-12-11T11:30:25.927Z,12.48
2022-12-11T11:33:04.685Z,13.05
2022-12-11T11:35:39.141Z,13.27
2022-12-11T19:14:00.842Z,18.20
2022-12-11T19:16:39.342Z,19.00
2022-12-11T19:19:18.566Z,19.13
2022-12-11T19:21:50.694Z,19.40
2022-12-11T19:24:24.254Z,19.63
2022-12-11T19:26:56.960Z,19.48
2022-12-11T19:29:34.721Z,21.40
2022-12-11T19:32:07.107Z,20.10
2022-12-11T19:34:40.394Z,20.90
2022-12-11T19:37:12.448Z,25.98
2022-12-11T19:39:44.587Z,21.27
2022-12-11T19:42:16.786Z,21.75
2022-12-11T19:44:48.947Z,22.77
2022-12-11T19:47:20.953Z,22.92
2022-12-11T19:49:53.012Z,23.92
2022-12-11T19:52:25.236Z,22.52
2022-12-11T19:55:01.846Z,23.45
2022-12-11T19:57:34.539Z,23.13
2022-12-11T20:00:08.253Z,23.60
